createdAt,value
2023-05-17T00:01:18.015Z,6.70
2023-05-17T00:03:46.144Z,6.10
2023-05-17T00:06:14.176Z,7.10
2023-05-17T00:08:42.376Z,7.20
2023-05-17T00:11:10.707Z,7.40
2023-05-17T00:13:39.918Z,8.00
2023-05-17T00:16:08.472Z,10.00
2023-05-17T00:18:36.657Z,8.20
2023-05-17T00:21:04.851Z,8.50
2023-05-17T00:23:32.950Z,9.20
2023-05-17T00:26:01.054Z,8.00
2023-05-17T00:28:29.109Z,9.10
2023-05-17T00:30:58.190Z,8.40
2023-05-17T00:33:26.241Z,9.40
2023-05-17T00:35:54.337Z,6.90
2023-05-17T00:38:22.604Z,5.30
2023-05-17T00:40:51.069Z,5.20
2023-05-17T00:43:19.112Z,5.60
2023-05-17T00:45:49.415Z,7.50
2023-05-17T00:48:21.281Z,6.80
2023-05-17T00:50:49.596Z,4.40
2023-05-17T00:53:18.745Z,4.80
2023-05-17T00:55:47.217Z,3.70
2023-05-17T00:58:16.439Z,4.30
2023-05-17T01:00:44.979Z,4.80
2023-05-17T01:03:13.500Z,4.60
2023-05-17T01:05:42.064Z,6.00
2023-05-17T01:08:10.103Z,6.10
2023-05-17T01:11:01.801Z,6.60
2023-05-17T01:13:53.069Z,5.90
2023-05-17T01:16:30.260Z,5.60
2023-05-17T01:19:46.354Z,4.20
2023-05-17T01:22:45.406Z,4.70
2023-05-17T01:25:38.121Z,5.10
2023-05-17T01:28:07.831Z,5.10
2023-05-17T01:30:38.474Z,5.30
2023-05-17T01:33:07.650Z,5.00
2023-05-17T01:35:35.919Z,5.10
2023-05-17T01:38:03.982Z,4.20
2023-05-17T01:40:36.328Z,4.30
2023-05-17T01:43:17.310Z,5.70
2023-05-17T01:45:54.015Z,4.70
2023-05-17T01:48:31.675Z,6.40
2023-05-17T01:51:00.677Z,6.20
2023-05-17T01:53:48.621Z,6.70
2023-05-17T01:56:22.089Z,5.60
2023-05-17T01:58:53.086Z,7.30
2023-05-17T02:01:21.870Z,7.50
2023-05-17T02:06:18.856Z,8.60
2023-05-17T02:08:47.046Z,8.00
2023-05-17T02:11:15.277Z,7.50
2023-05-17T02:13:43.297Z,7.40
2023-05-17T02:16:12.071Z,6.10
2023-05-17T02:21:08.941Z,6.90
2023-05-17T02:23:38.072Z,6.70
2023-05-17T02:26:06.285Z,6.80
2023-05-17T02:28:35.605Z,6.10
2023-05-17T02:31:04.655Z,6.40
2023-05-17T02:33:32.889Z,7.50
2023-05-17T02:36:01.264Z,5.90
2023-05-17T02:38:29.392Z,6.30
2023-05-17T02:40:57.435Z,7.50
2023-05-17T02:43:25.811Z,7.10
2023-05-17T02:45:53.802Z,6.40
2023-05-17T02:48:22.078Z,6.70
2023-05-17T02:50:50.196Z,6.60
2023-05-17T02:53:18.272Z,7.20
2023-05-17T02:55:46.432Z,8.60
2023-05-17T02:58:14.823Z,5.60
2023-05-17T03:00:46.505Z,5.70
2023-05-17T03:03:16.145Z,4.60
2023-05-17T03:05:44.494Z,3.90
2023-05-17T03:08:12.729Z,5.00
2023-05-17T03:10:41.060Z,6.10
2023-05-17T03:13:10.387Z,4.80
2023-05-17T03:15:40.770Z,6.50
2023-05-17T03:18:08.856Z,5.20
2023-05-17T03:20:38.500Z,12.50
2023-05-17T03:23:07.552Z,13.60
2023-05-17T03:25:40.957Z,15.10
2023-05-17T03:28:08.941Z,15.50
2023-05-17T03:33:06.063Z,9.80
2023-05-17T03:35:35.558Z,7.80
2023-05-17T03:38:03.665Z,11.70
2023-05-17T03:40:32.354Z,16.70
2023-05-17T03:45:30.609Z,27.60
2023-05-17T03:47:58.873Z,15.40
2023-05-17T03:50:28.195Z,9.30
2023-05-17T03:52:57.006Z,12.70
2023-05-17T03:55:25.055Z,11.90
2023-05-17T03:57:53.051Z,10.00
2023-05-17T04:00:24.690Z,9.10
2023-05-17T04:02:54.425Z,8.80
2023-05-17T04:05:22.647Z,8.40
2023-05-17T04:07:51.031Z,9.60
2023-05-17T04:10:19.317Z,9.80
2023-05-17T04:12:47.509Z,11.40
2023-05-17T04:15:16.486Z,10.70
2023-05-17T04:17:45.018Z,7.80
2023-05-17T04:20:13.345Z,8.90
2023-05-17T04:25:11.516Z,13.00
2023-05-17T04:27:40.278Z,22.70
2023-05-17T04:30:09.232Z,17.70
2023-05-17T04:32:37.362Z,17.50
2023-05-17T04:35:06.139Z,16.40
2023-05-17T04:40:10.094Z,12.50
2023-05-17T04:42:38.200Z,12.00
2023-05-17T04:45:07.499Z,15.60
2023-05-17T04:47:35.937Z,15.20
2023-05-17T04:50:04.831Z,13.30
2023-05-17T04:52:33.109Z,11.80
2023-05-17T04:55:01.528Z,14.20
2023-05-17T04:57:29.662Z,12.60
2023-05-17T05:00:07.452Z,12.80
2023-05-17T05:02:36.390Z,38.90
2023-05-17T05:05:06.902Z,19.20
2023-05-17T05:07:36.499Z,15.90
2023-05-17T05:10:05.407Z,15.00
2023-05-17T05:12:34.191Z,18.00
2023-05-17T05:15:02.387Z,17.50
2023-05-17T05:17:31.723Z,14.70
2023-05-17T05:20:01.071Z,18.50
2023-05-17T05:22:29.357Z,14.60
2023-05-17T05:24:57.570Z,13.00
2023-05-17T05:27:25.736Z,12.80
2023-05-17T05:29:55.244Z,14.30
2023-05-17T05:32:24.627Z,14.20
2023-05-17T05:34:52.804Z,17.20
2023-05-17T05:37:21.024Z,17.50
2023-05-17T05:39:49.283Z,33.60
2023-05-17T05:42:18.515Z,22.60
2023-05-17T05:44:46.926Z,12.50
2023-05-17T05:47:16.426Z,10.40
2023-05-17T05:52:13.052Z,10.70
2023-05-17T05:54:42.247Z,11.60
2023-05-17T05:57:10.755Z,13.80
2023-05-17T05:59:38.769Z,15.70
2023-05-17T06:02:07.156Z,20.20
2023-05-17T06:04:44.667Z,17.40
2023-05-17T06:09:43.333Z,7.10
2023-05-17T06:12:11.652Z,8.50
2023-05-17T06:14:39.906Z,7.60
2023-05-17T06:17:08.099Z,7.40
2023-05-17T06:19:36.373Z,8.30
2023-05-17T06:22:05.106Z,8.10
2023-05-17T06:24:33.579Z,9.40
2023-05-17T06:27:01.713Z,8.10
2023-05-17T06:29:30.098Z,8.90
2023-05-17T06:31:59.951Z,10.00
2023-05-17T06:34:28.576Z,11.00
2023-05-17T06:36:56.678Z,8.80
2023-05-17T06:39:24.917Z,9.60
2023-05-17T06:41:53.021Z,10.00
2023-05-17T06:44:21.239Z,11.30
2023-05-17T06:46:49.631Z,11.80
2023-05-17T06:49:17.863Z,9.50
2023-05-17T06:51:46.194Z,12.20
2023-05-17T06:54:14.908Z,11.60
2023-05-17T06:56:43.145Z,19.50
2023-05-17T06:59:11.199Z,19.20
2023-05-17T07:01:39.885Z,7.70
2023-05-17T07:06:36.134Z,5.40
2023-05-17T07:09:04.354Z,7.60
2023-05-17T07:11:33.019Z,8.10
2023-05-17T07:16:29.335Z,7.30
2023-05-17T07:18:57.537Z,8.10
2023-05-17T07:21:25.847Z,9.60
2023-05-17T07:23:54.090Z,6.90
2023-05-17T07:26:22.592Z,8.20
2023-05-17T07:31:19.100Z,8.00
2023-05-17T07:33:47.150Z,7.70
2023-05-17T07:36:15.258Z,7.00
2023-05-17T07:38:43.766Z,5.00
2023-05-17T07:41:14.006Z,9.80
2023-05-17T07:43:44.283Z,4.30
2023-05-17T07:46:12.479Z,5.80
2023-05-17T07:48:40.955Z,6.80
2023-05-17T07:53:37.594Z,4.80
2023-05-17T07:56:05.855Z,4.80
2023-05-17T07:58:34.087Z,3.90
2023-05-17T08:01:02.284Z,4.80
2023-05-17T08:03:31.136Z,6.70
2023-05-17T08:08:28.135Z,14.90
2023-05-17T08:10:56.369Z,8.30
2023-05-17T08:13:24.398Z,7.50
2023-05-17T08:15:58.523Z,6.90
2023-05-17T08:18:33.671Z,5.70
2023-05-17T08:25:58.751Z,6.60
2023-05-17T08:28:27.073Z,7.10
2023-05-17T08:30:55.370Z,3.30
2023-05-17T08:33:26.116Z,5.70
2023-05-17T08:35:55.681Z,5.40
2023-05-17T08:38:23.827Z,5.60
2023-05-17T08:40:56.245Z,10.10
2023-05-17T08:43:27.475Z,5.60
2023-05-17T08:45:59.477Z,3.90
2023-05-17T08:48:31.614Z,4.70
2023-05-17T08:51:00.301Z,6.60
2023-05-17T08:53:29.210Z,11.80
2023-05-17T08:56:02.405Z,7.90
2023-05-17T08:58:52.279Z,4.90
2023-05-17T09:01:27.416Z,2.80
2023-05-17T09:03:56.525Z,4.50
2023-05-17T09:06:24.876Z,3.50
2023-05-17T09:08:55.091Z,3.80
2023-05-17T09:11:33.818Z,4.10
2023-05-17T09:14:07.407Z,3.40
2023-05-17T09:16:37.482Z,3.50
2023-05-17T09:19:10.062Z,4.10
2023-05-17T09:21:38.805Z,3.00
2023-05-17T09:24:08.715Z,5.70
2023-05-17T09:26:45.594Z,6.40
2023-05-17T09:29:15.959Z,6.40
2023-05-17T09:31:44.799Z,3.80
2023-05-17T09:34:18.108Z,6.20
2023-05-17T09:36:46.899Z,4.20
2023-05-17T09:39:15.881Z,4.10
2023-05-17T09:41:47.082Z,3.90
2023-05-17T09:44:16.776Z,4.40
2023-05-17T09:46:47.874Z,3.70
2023-05-17T09:49:18.024Z,4.50
2023-05-17T09:51:48.634Z,5.20
2023-05-17T09:54:18.042Z,5.00
2023-05-17T09:56:53.779Z,3.10
2023-05-17T09:59:25.102Z,3.20
2023-05-17T10:01:54.545Z,4.60
2023-05-17T10:04:26.273Z,4.50
2023-05-17T10:06:55.185Z,5.40
2023-05-17T10:09:24.197Z,4.40
2023-05-17T10:11:56.658Z,3.40
2023-05-17T10:14:32.035Z,3.70
2023-05-17T10:17:03.307Z,5.50
2023-05-17T10:19:32.765Z,4.80
2023-05-17T10:22:21.250Z,4.90
2023-05-17T10:24:51.785Z,5.50
2023-05-17T10:27:22.067Z,5.50
2023-05-17T10:29:50.854Z,4.80
2023-05-17T10:32:23.619Z,5.20
2023-05-17T10:35:05.986Z,3.80
2023-05-17T10:37:41.409Z,3.90
2023-05-17T10:40:14.084Z,4.90
2023-05-17T10:42:45.888Z,4.50
2023-05-17T10:45:14.992Z,4.30
2023-05-17T10:47:43.647Z,4.90
2023-05-17T10:50:15.752Z,5.30
2023-05-17T10:52:48.911Z,4.00
2023-05-17T10:55:22.023Z,3.40
2023-05-17T10:58:09.728Z,4.00
2023-05-17T11:00:41.864Z,7.30
2023-05-17T11:03:29.034Z,4.60
2023-05-17T11:06:19.404Z,3.60
2023-05-17T11:09:32.494Z,3.70
2023-05-17T11:12:10.123Z,3.90
2023-05-17T11:14:58.656Z,3.60
2023-05-17T11:20:08.012Z,3.80
2023-05-17T11:22:44.540Z,3.60
2023-05-17T11:25:14.562Z,3.60
2023-05-17T11:27:52.494Z,3.70
2023-05-17T11:30:29.857Z,3.40
2023-05-17T11:33:04.480Z,4.30
2023-05-17T11:35:39.930Z,5.00
2023-05-17T11:38:18.052Z,4.30
2023-05-17T11:40:47.782Z,3.90
2023-05-17T11:43:17.970Z,3.40
2023-05-17T11:45:57.629Z,4.20
2023-05-17T11:48:26.774Z,3.80
2023-05-17T11:50:57.032Z,8.70
2023-05-17T11:53:27.382Z,4.50
2023-05-17T11:55:56.483Z,5.10
2023-05-17T11:58:26.747Z,4.70
2023-05-17T12:00:56.391Z,4.30
2023-05-17T12:03:33.987Z,4.00
2023-05-17T12:06:13.603Z,4.40
2023-05-17T12:08:46.132Z,4.40
2023-05-17T12:11:18.666Z,8.60
2023-05-17T12:13:49.155Z,7.00
2023-05-17T12:16:21.510Z,11.90
2023-05-17T12:18:52.076Z,4.10
2023-05-17T12:21:21.589Z,3.50
2023-05-17T12:23:53.852Z,3.70
2023-05-17T12:26:24.228Z,4.00
2023-05-17T12:28:59.980Z,5.70
2023-05-17T12:31:48.373Z,5.40
2023-05-17T12:34:18.248Z,4.50
2023-05-17T12:36:47.054Z,4.70
2023-05-17T12:39:15.809Z,3.80
2023-05-17T12:41:44.606Z,4.10
2023-05-17T12:44:16.494Z,3.80
2023-05-17T12:46:45.580Z,4.10
2023-05-17T12:49:13.805Z,6.50
2023-05-17T12:51:46.230Z,3.90
2023-05-17T12:54:34.774Z,4.00
2023-05-17T12:57:16.255Z,4.80
2023-05-17T12:59:49.406Z,4.90
2023-05-17T13:02:20.357Z,4.50
2023-05-17T13:04:48.723Z,4.20
2023-05-17T13:07:24.260Z,5.10
2023-05-17T13:09:52.634Z,8.10
2023-05-17T13:12:23.196Z,9.10
2023-05-17T13:14:53.670Z,7.00
2023-05-17T13:17:27.366Z,5.40
2023-05-17T13:19:57.916Z,7.10
2023-05-17T13:22:26.817Z,5.20
2023-05-17T13:24:55.610Z,4.40
2023-05-17T13:27:23.870Z,3.40
2023-05-17T13:29:51.977Z,3.00
2023-05-17T13:32:21.249Z,3.60
2023-05-17T13:34:49.417Z,4.50
2023-05-17T13:37:17.576Z,5.70
2023-05-17T13:39:45.612Z,3.70
2023-05-17T13:42:14.530Z,4.50
2023-05-17T13:44:42.696Z,3.40
2023-05-17T13:47:10.824Z,6.90
2023-05-17T13:49:38.998Z,5.80
2023-05-17T13:52:09.070Z,4.00
2023-05-17T13:54:38.223Z,5.30
2023-05-17T13:57:08.164Z,3.90
2023-05-17T13:59:36.651Z,2.80
2023-05-17T14:04:33.672Z,3.70
2023-05-17T14:07:03.626Z,4.50
2023-05-17T14:09:34.046Z,3.70
2023-05-17T14:12:02.769Z,3.50
2023-05-17T14:14:31.147Z,6.30
2023-05-17T14:16:59.416Z,5.00
2023-05-17T14:19:27.638Z,4.80
2023-05-17T14:21:56.062Z,4.90
2023-05-17T14:24:24.342Z,5.50
2023-05-17T14:26:52.587Z,4.10
2023-05-17T14:29:21.011Z,4.50
2023-05-17T14:31:49.342Z,2.60
2023-05-17T14:34:17.678Z,4.00
2023-05-17T14:36:46.061Z,2.80
2023-05-17T14:39:14.141Z,2.50
2023-05-17T14:41:44.800Z,6.40
2023-05-17T14:44:14.665Z,2.80
2023-05-17T14:46:42.945Z,3.20
2023-05-17T14:49:11.207Z,4.20
2023-05-17T14:51:39.382Z,3.40
2023-05-17T14:54:07.447Z,4.00
2023-05-17T14:56:35.671Z,3.50
2023-05-17T14:59:03.917Z,4.70
2023-05-17T15:01:32.206Z,3.30
2023-05-17T15:04:00.475Z,2.90
2023-05-17T15:06:28.749Z,3.00
2023-05-17T15:08:57.654Z,3.90
2023-05-17T15:11:25.656Z,3.20
2023-05-17T15:13:54.871Z,4.50
2023-05-17T15:16:23.120Z,3.10
2023-05-17T15:18:53.290Z,4.70
2023-05-17T15:21:22.545Z,3.00
2023-05-17T15:23:51.200Z,3.90
2023-05-17T15:26:19.567Z,3.00
2023-05-17T15:28:50.032Z,3.10
2023-05-17T15:31:18.233Z,3.70
2023-05-17T15:33:46.628Z,3.40
2023-05-17T15:38:45.262Z,4.70
2023-05-17T15:41:16.143Z,3.60
2023-05-17T15:43:44.727Z,3.80
2023-05-17T15:48:41.233Z,5.10
2023-05-17T15:51:10.157Z,4.10
2023-05-17T15:56:06.654Z,5.60
2023-05-17T15:58:35.662Z,4.90
2023-05-17T16:01:04.889Z,3.40
2023-05-17T16:03:33.793Z,4.50
2023-05-17T16:06:04.442Z,3.20
2023-05-17T16:08:33.467Z,2.70
2023-05-17T16:11:02.713Z,3.10
2023-05-17T16:13:31.283Z,5.30
2023-05-17T16:16:00.227Z,6.00
2023-05-17T16:18:29.353Z,4.30
2023-05-17T16:21:04.285Z,3.10
2023-05-17T16:23:32.947Z,3.00
2023-05-17T16:26:01.513Z,3.00
2023-05-17T16:28:31.838Z,3.20
2023-05-17T16:31:01.376Z,2.90
2023-05-17T16:33:29.608Z,6.60
2023-05-17T16:35:58.883Z,16.80
2023-05-17T16:38:27.231Z,15.80
2023-05-17T16:40:55.443Z,12.60
2023-05-17T16:43:23.471Z,16.70
2023-05-17T16:45:53.176Z,6.00
2023-05-17T16:48:21.502Z,46.70
2023-05-17T16:50:49.816Z,69.40
2023-05-17T16:53:18.158Z,47.60
2023-05-17T16:55:46.342Z,23.60
2023-05-17T16:58:14.452Z,35.50
2023-05-17T17:00:42.662Z,17.50
2023-05-17T17:03:11.204Z,3.30
2023-05-17T17:05:39.481Z,4.50
2023-05-17T17:08:11.587Z,3.90
2023-05-17T17:10:39.883Z,4.00
2023-05-17T17:13:07.929Z,6.90
2023-05-17T17:15:35.987Z,4.40
2023-05-17T17:18:04.097Z,6.60
2023-05-17T17:23:00.538Z,6.50
2023-05-17T17:25:28.656Z,15.20
2023-05-17T17:27:57.348Z,15.20
2023-05-17T17:30:25.544Z,11.20
2023-05-17T17:32:53.694Z,9.90
2023-05-17T17:35:22.084Z,8.40
2023-05-17T17:37:50.419Z,8.80
2023-05-17T17:40:18.574Z,7.80
2023-05-17T17:42:47.404Z,7.60
2023-05-17T17:45:15.728Z,8.00
2023-05-17T17:47:43.992Z,7.60
2023-05-17T17:50:12.328Z,6.30
2023-05-17T17:52:40.813Z,9.40
2023-05-17T17:55:10.938Z,8.20
2023-05-17T17:57:39.371Z,26.80
2023-05-17T18:00:11.565Z,25.80
2023-05-17T18:02:40.520Z,8.10
2023-05-17T18:05:10.385Z,15.00
2023-05-17T18:07:38.781Z,17.70
2023-05-17T18:10:07.578Z,11.70
2023-05-17T18:15:04.335Z,10.90
2023-05-17T18:17:32.676Z,12.60
2023-05-17T18:20:00.946Z,14.80
2023-05-17T18:22:29.456Z,17.90
2023-05-17T18:24:57.555Z,19.70
2023-05-17T18:27:26.533Z,17.80
2023-05-17T18:29:54.607Z,14.20
2023-05-17T18:32:22.778Z,12.70
2023-05-17T18:34:50.947Z,16.90
2023-05-17T18:37:19.114Z,18.00
2023-05-17T18:39:47.211Z,18.20
2023-05-17T18:42:15.274Z,13.30
2023-05-17T18:44:43.438Z,14.50
2023-05-17T18:47:12.300Z,12.40
2023-05-17T18:49:46.741Z,14.40
2023-05-17T18:52:15.022Z,9.10
2023-05-17T18:54:43.089Z,13.00
2023-05-17T18:57:12.312Z,14.20
2023-05-17T18:59:41.176Z,18.20
2023-05-17T19:04:37.774Z,13.20
2023-05-17T19:07:06.193Z,13.60
2023-05-17T19:09:34.689Z,13.40
2023-05-17T19:12:02.881Z,10.80
2023-05-17T19:17:00.490Z,9.90
2023-05-17T19:19:28.930Z,5.70
2023-05-17T19:24:25.609Z,5.40
2023-05-17T19:26:53.701Z,4.20
2023-05-17T19:29:22.415Z,3.70
2023-05-17T19:31:51.108Z,3.60
2023-05-17T19:34:19.418Z,4.20
2023-05-17T19:36:47.485Z,4.60
2023-05-17T19:39:18.695Z,3.10
2023-05-17T19:41:46.955Z,5.10
2023-05-17T19:44:14.998Z,5.60
2023-05-17T19:46:43.199Z,6.80
2023-05-17T19:49:12.695Z,7.00
2023-05-17T19:51:40.982Z,6.40
2023-05-17T19:54:09.003Z,6.50
2023-05-17T19:56:37.264Z,7.40
2023-05-17T19:59:06.234Z,7.10
2023-05-17T20:01:34.483Z,7.40
2023-05-17T20:04:02.694Z,7.50
2023-05-17T20:06:31.000Z,6.90
2023-05-17T20:09:02.213Z,7.20
2023-05-17T20:11:31.249Z,7.10
2023-05-17T20:13:59.683Z,6.60
2023-05-17T20:16:29.575Z,7.60
2023-05-17T20:19:01.218Z,7.30
2023-05-17T20:21:29.985Z,8.10
2023-05-17T20:24:03.646Z,7.60
2023-05-17T20:26:36.661Z,8.50
2023-05-17T20:29:07.445Z,8.80
2023-05-17T20:31:36.989Z,14.40
2023-05-17T20:34:05.466Z,16.80
2023-05-17T20:36:33.941Z,10.30
2023-05-17T20:39:02.283Z,7.80
2023-05-17T20:41:30.355Z,8.00
2023-05-17T20:43:58.551Z,6.70
2023-05-17T20:46:30.026Z,5.90
2023-05-17T20:48:58.360Z,6.50
2023-05-17T20:51:27.587Z,12.30
2023-05-17T20:53:55.770Z,18.80
2023-05-17T20:56:23.884Z,16.40
2023-05-17T20:58:51.882Z,15.00
2023-05-17T21:01:20.021Z,14.90
2023-05-17T21:03:48.202Z,17.10
2023-05-17T21:06:16.424Z,13.40
2023-05-17T21:08:44.854Z,11.00
2023-05-17T21:11:18.951Z,10.40
2023-05-17T21:13:48.255Z,8.10
2023-05-17T21:16:17.725Z,8.10
2023-05-17T21:18:46.165Z,7.80
2023-05-17T21:21:14.453Z,8.10
2023-05-17T21:23:42.591Z,7.80
2023-05-17T21:26:10.690Z,8.30
2023-05-17T21:28:38.881Z,7.00
2023-05-17T21:31:07.061Z,5.30
2023-05-17T21:33:35.574Z,5.10
2023-05-17T21:36:03.901Z,5.60
2023-05-17T21:38:32.118Z,4.40
2023-05-17T21:41:00.165Z,3.60
2023-05-17T21:43:28.238Z,3.90
2023-05-17T21:45:56.271Z,2.80
2023-05-17T21:48:24.772Z,2.50
2023-05-17T21:50:52.863Z,2.70
2023-05-17T21:53:20.879Z,2.70
2023-05-17T21:56:01.514Z,3.30
2023-05-17T21:58:32.119Z,2.80
2023-05-17T22:01:01.482Z,3.40
2023-05-17T22:03:29.894Z,3.20
2023-05-17T22:08:27.266Z,2.80
2023-05-17T22:10:55.961Z,3.50
2023-05-17T22:13:26.874Z,2.80
2023-05-17T22:15:57.411Z,3.90
2023-05-17T22:18:27.258Z,5.70
2023-05-17T22:20:59.412Z,6.80
2023-05-17T22:23:28.301Z,6.90
2023-05-17T22:28:28.802Z,5.90
2023-05-17T22:30:56.938Z,6.50
2023-05-17T22:33:25.109Z,6.80
2023-05-17T22:35:54.331Z,6.90
2023-05-17T22:38:25.125Z,2.90
2023-05-17T22:40:53.141Z,3.40
2023-05-17T22:43:26.050Z,3.40
2023-05-17T22:45:54.183Z,4.90
2023-05-17T22:48:22.206Z,3.40
2023-05-17T22:50:50.705Z,3.30
2023-05-17T22:53:19.278Z,5.10
2023-05-17T22:55:49.177Z,6.50
2023-05-17T22:58:18.131Z,5.10
2023-05-17T23:00:50.973Z,4.00
2023-05-17T23:03:20.068Z,4.40
2023-05-17T23:05:48.395Z,5.20
2023-05-17T23:08:16.509Z,3.20
2023-05-17T23:10:44.931Z,2.70
2023-05-17T23:13:13.952Z,3.20
2023-05-17T23:15:46.914Z,3.00
2023-05-17T23:18:16.192Z,3.70
2023-05-17T23:20:49.073Z,4.00
2023-05-17T23:23:17.218Z,4.30
2023-05-17T23:25:48.750Z,3.30
2023-05-17T23:28:18.423Z,3.10
2023-05-17T23:30:48.812Z,3.20
2023-05-17T23:33:21.034Z,3.20
2023-05-17T23:35:49.124Z,3.80
2023-05-17T23:38:17.180Z,4.10
2023-05-17T23:40:45.200Z,4.20
2023-05-17T23:43:13.258Z,4.70
2023-05-17T23:45:41.497Z,3.70
2023-05-17T23:48:09.943Z,3.90
2023-05-17T23:50:39.251Z,4.40
2023-05-17T23:53:09.862Z,3.70
2023-05-17T23:55:38.778Z,4.00
